sensor_id;sensor_type;location;lat;lon;timestamp;P1;durP1;ratioP1;P2;durP2;ratioP2
2187;SDS011;1100;52.014;8.540;2022-12-18T00:01:15;25.52;;;9.93;;
2187;SDS011;1100;52.014;8.540;2022-12-18T00:03:44;22.13;;;9.43;;
2187;SDS011;1100;52.014;8.540;2022-12-18T00:06:10;27.38;;;9.95;;
2187;SDS011;1100;52.014;8.540;2022-12-18T00:08:36;24.73;;;9.27;;
2187;SDS011;1100;52.014;8.540;2022-12-18T00:11:08;23.35;;;9.82;;
2187;SDS011;1100;52.014;8.540;2022-12-18T00:13:38;26.38;;;10.20;;
2187;SDS011;1100;52.014;8.540;2022-12-18T00:16:05;22.25;;;9.88;;
2187;SDS011;1100;52.014;8.540;2022-12-18T00:18:33;22.70;;;8.85;;
2187;SDS011;1100;52.014;8.540;2022-12-18T00:20:59;30.03;;;10.47;;
2187;SDS011;1100;52.014;8.540;2022-12-18T00:23:26;24.52;;;10.77;;
2187;SDS011;1100;52.014;8.540;2022-12-18T00:25:52;25.50;;;10.45;;
2187;SDS011;1100;52.014;8.540;2022-12-18T00:28:18;27.53;;;10.87;;
2187;SDS011;1100;52.014;8.540;2022-12-18T00:30:43;26.95;;;10.77;;
2187;SDS011;1100;52.014;8.540;2022-12-18T00:33:09;24.67;;;10.38;;
2187;SDS011;1100;52.014;8.540;2022-12-18T00:35:34;28.23;;;10.73;;
2187;SDS011;1100;52.014;8.540;2022-12-18T00:38:00;22.02;;;8.85;;
2187;SDS011;1100;52.014;8.540;2022-12-18T00:40:26;23.83;;;9.43;;
2187;SDS011;1100;52.014;8.540;2022-12-18T00:42:51;25.50;;;9.90;;
2187;SDS011;1100;52.014;8.540;2022-12-18T00:45:26;25.50;;;9.63;;
2187;SDS011;1100;52.014;8.540;2022-12-18T00:47:54;24.92;;;9.23;;
2187;SDS011;1100;52.014;8.540;2022-12-18T00:50:21;25.80;;;10.80;;
2187;SDS011;1100;52.014;8.540;2022-12-18T00:52:51;23.95;;;9.02;;
2187;SDS011;1100;52.014;8.540;2022-12-18T00:55:17;25.13;;;9.10;;
2187;SDS011;1100;52.014;8.540;2022-12-18T00:57:43;26.10;;;10.82;;
2187;SDS011;1100;52.014;8.540;2022-12-18T01:00:10;24.52;;;10.32;;
2187;SDS011;1100;52.014;8.540;2022-12-18T01:02:40;25.42;;;10.52;;
2187;SDS011;1100;52.014;8.540;2022-12-18T01:05:06;25.65;;;10.10;;
2187;SDS011;1100;52.014;8.540;2022-12-18T01:07:32;27.20;;;10.88;;
2187;SDS011;1100;52.014;8.540;2022-12-18T01:09:59;25.05;;;10.10;;
2187;SDS011;1100;52.014;8.540;2022-12-18T01:12:25;28.50;;;11.27;;
2187;SDS011;1100;52.014;8.540;2022-12-18T01:14:51;24.98;;;9.90;;
2187;SDS011;1100;52.014;8.540;2022-12-18T01:17:19;29.43;;;11.47;;
2187;SDS011;1100;52.014;8.540;2022-12-18T01:19:44;25.95;;;11.15;;
2187;SDS011;1100;52.014;8.540;2022-12-18T01:22:10;23.13;;;9.43;;
2187;SDS011;1100;52.014;8.540;2022-12-18T01:24:35;27.20;;;11.00;;
2187;SDS011;1100;52.014;8.540;2022-12-18T01:27:00;29.05;;;11.35;;
2187;SDS011;1100;52.014;8.540;2022-12-18T01:29:26;29.67;;;11.60;;
2187;SDS011;1100;52.014;8.540;2022-12-18T01:31:54;32.77;;;11.30;;
2187;SDS011;1100;52.014;8.540;2022-12-18T01:34:20;28.35;;;10.13;;
2187;SDS011;1100;52.014;8.540;2022-12-18T01:36:45;25.83;;;10.27;;
2187;SDS011;1100;52.014;8.540;2022-12-18T01:39:11;31.97;;;11.70;;
2187;SDS011;1100;52.014;8.540;2022-12-18T01:41:38;28.40;;;11.27;;
2187;SDS011;1100;52.014;8.540;2022-12-18T01:47:20;23.25;;;10.77;;
2187;SDS011;1100;52.014;8.540;2022-12-18T01:49:49;23.73;;;10.27;;
2187;SDS011;1100;52.014;8.540;2022-12-18T01:52:15;25.88;;;11.20;;
2187;SDS011;1100;52.014;8.540;2022-12-18T01:54:42;27.03;;;10.40;;
2187;SDS011;1100;52.014;8.540;2022-12-18T01:57:09;23.23;;;10.57;;
2187;SDS011;1100;52.014;8.540;2022-12-18T01:59:34;28.53;;;11.47;;
2187;SDS011;1100;52.014;8.540;2022-12-18T02:02:01;26.38;;;10.05;;
2187;SDS011;1100;52.014;8.540;2022-12-18T02:04:27;25.45;;;11.13;;
2187;SDS011;1100;52.014;8.540;2022-12-18T02:09:46;27.52;;;11.13;;
2187;SDS011;1100;52.014;8.540;2022-12-18T02:17:42;25.83;;;10.48;;
2187;SDS011;1100;52.014;8.540;2022-12-18T02:20:21;26.80;;;10.67;;
2187;SDS011;1100;52.014;8.540;2022-12-18T02:26:03;25.05;;;10.27;;
2187;SDS011;1100;52.014;8.540;2022-12-18T02:28:34;23.38;;;10.05;;
2187;SDS011;1100;52.014;8.540;2022-12-18T02:31:06;25.13;;;10.07;;
2187;SDS011;1100;52.014;8.540;2022-12-18T02:33:35;25.90;;;9.90;;
2187;SDS011;1100;52.014;8.540;2022-12-18T02:36:01;25.55;;;10.52;;
2187;SDS011;1100;52.014;8.540;2022-12-18T02:38:28;29.02;;;10.40;;
2187;SDS011;1100;52.014;8.540;2022-12-18T02:40:55;27.98;;;10.45;;
2187;SDS011;1100;52.014;8.540;2022-12-18T02:43:22;23.75;;;9.38;;
2187;SDS011;1100;52.014;8.540;2022-12-18T02:45:49;26.33;;;10.60;;
2187;SDS011;1100;52.014;8.540;2022-12-18T02:48:18;25.20;;;8.95;;
2187;SDS011;1100;52.014;8.540;2022-12-18T02:50:51;24.27;;;9.00;;
2187;SDS011;1100;52.014;8.540;2022-12-18T02:53:33;24.60;;;10.38;;
2187;SDS011;1100;52.014;8.540;2022-12-18T02:56:26;26.83;;;10.32;;
2187;SDS011;1100;52.014;8.540;2022-12-18T03:01:31;26.70;;;9.35;;
2187;SDS011;1100;52.014;8.540;2022-12-18T03:04:02;23.27;;;9.23;;
2187;SDS011;1100;52.014;8.540;2022-12-18T03:06:43;24.50;;;9.98;;
2187;SDS011;1100;52.014;8.540;2022-12-18T03:09:20;28.77;;;10.02;;
2187;SDS011;1100;52.014;8.540;2022-12-18T03:11:59;23.63;;;10.15;;
2187;SDS011;1100;52.014;8.540;2022-12-18T03:14:48;24.17;;;10.07;;
2187;SDS011;1100;52.014;8.540;2022-12-18T03:17:19;29.33;;;9.70;;
2187;SDS011;1100;52.014;8.540;2022-12-18T03:19:48;22.52;;;9.73;;
2187;SDS011;1100;52.014;8.540;2022-12-18T03:22:17;24.88;;;10.43;;
2187;SDS011;1100;52.014;8.540;2022-12-18T03:24:43;21.20;;;9.05;;
2187;SDS011;1100;52.014;8.540;2022-12-18T03:27:11;24.42;;;8.90;;
2187;SDS011;1100;52.014;8.540;2022-12-18T03:29:40;22.63;;;8.90;;
2187;SDS011;1100;52.014;8.540;2022-12-18T03:32:11;25.45;;;9.70;;
2187;SDS011;1100;52.014;8.540;2022-12-18T03:34:44;23.17;;;9.98;;
2187;SDS011;1100;52.014;8.540;2022-12-18T03:37:15;19.60;;;8.52;;
2187;SDS011;1100;52.014;8.540;2022-12-18T03:39:40;27.20;;;9.20;;
2187;SDS011;1100;52.014;8.540;2022-12-18T03:44:43;23.97;;;9.20;;
2187;SDS011;1100;52.014;8.540;2022-12-18T03:52:54;28.55;;;9.85;;
2187;SDS011;1100;52.014;8.540;2022-12-18T03:55:25;25.58;;;9.43;;
2187;SDS011;1100;52.014;8.540;2022-12-18T03:57:55;22.88;;;8.70;;
2187;SDS011;1100;52.014;8.540;2022-12-18T04:00:22;24.88;;;9.63;;
2187;SDS011;1100;52.014;8.540;2022-12-18T04:02:50;23.27;;;8.60;;
2187;SDS011;1100;52.014;8.540;2022-12-18T04:05:19;23.40;;;9.00;;
2187;SDS011;1100;52.014;8.540;2022-12-18T04:07:47;21.05;;;8.05;;
2187;SDS011;1100;52.014;8.540;2022-12-18T04:10:14;24.70;;;8.52;;
2187;SDS011;1100;52.014;8.540;2022-12-18T04:12:41;21.67;;;8.23;;
2187;SDS011;1100;52.014;8.540;2022-12-18T04:15:08;20.40;;;8.95;;
2187;SDS011;1100;52.014;8.540;2022-12-18T04:17:34;22.75;;;8.27;;
2187;SDS011;1100;52.014;8.540;2022-12-18T04:19:59;21.27;;;8.40;;
2187;SDS011;1100;52.014;8.540;2022-12-18T04:22:24;23.93;;;8.00;;
2187;SDS011;1100;52.014;8.540;2022-12-18T04:24:50;22.07;;;7.73;;
2187;SDS011;1100;52.014;8.540;2022-12-18T04:27:15;24.25;;;7.93;;
2187;SDS011;1100;52.014;8.540;2022-12-18T04:29:40;24.07;;;8.80;;
2187;SDS011;1100;52.014;8.540;2022-12-18T04:32:06;23.17;;;8.27;;
2187;SDS011;1100;52.014;8.540;2022-12-18T04:34:32;22.48;;;7.97;;
2187;SDS011;1100;52.014;8.540;2022-12-18T04:36:57;19.73;;;7.43;;
2187;SDS011;1100;52.014;8.540;2022-12-18T04:39:24;23.53;;;8.47;;
2187;SDS011;1100;52.014;8.540;2022-12-18T04:41:49;24.73;;;8.15;;
2187;SDS011;1100;52.014;8.540;2022-12-18T04:44:14;22.17;;;8.43;;
2187;SDS011;1100;52.014;8.540;2022-12-18T04:46:40;21.07;;;8.23;;
2187;SDS011;1100;52.014;8.540;2022-12-18T04:49:05;21.47;;;8.30;;
2187;SDS011;1100;52.014;8.540;2022-12-18T04:51:30;20.57;;;7.23;;
2187;SDS011;1100;52.014;8.540;2022-12-18T04:53:56;19.00;;;6.90;;
2187;SDS011;1100;52.014;8.540;2022-12-18T04:56:21;24.42;;;8.23;;
2187;SDS011;1100;52.014;8.540;2022-12-18T04:58:46;21.23;;;6.97;;
2187;SDS011;1100;52.014;8.540;2022-12-18T05:01:13;22.70;;;7.40;;
2187;SDS011;1100;52.014;8.540;2022-12-18T05:03:41;16.17;;;6.57;;
2187;SDS011;1100;52.014;8.540;2022-12-18T05:06:07;23.48;;;7.40;;
2187;SDS011;1100;52.014;8.540;2022-12-18T05:08:32;19.20;;;7.60;;
2187;SDS011;1100;52.014;8.540;2022-12-18T05:11:02;21.27;;;7.88;;
2187;SDS011;1100;52.014;8.540;2022-12-18T05:13:28;22.67;;;8.17;;
2187;SDS011;1100;52.014;8.540;2022-12-18T05:15:54;22.45;;;7.32;;
2187;SDS011;1100;52.014;8.540;2022-12-18T05:18:19;23.60;;;7.68;;
2187;SDS011;1100;52.014;8.540;2022-12-18T05:20:45;19.92;;;6.95;;
2187;SDS011;1100;52.014;8.540;2022-12-18T05:23:11;20.93;;;7.63;;
2187;SDS011;1100;52.014;8.540;2022-12-18T05:25:36;19.55;;;8.00;;
2187;SDS011;1100;52.014;8.540;2022-12-18T05:28:01;24.83;;;8.20;;
2187;SDS011;1100;52.014;8.540;2022-12-18T05:30:27;19.20;;;8.10;;
2187;SDS011;1100;52.014;8.540;2022-12-18T05:32:52;19.00;;;6.93;;
2187;SDS011;1100;52.014;8.540;2022-12-18T05:35:18;20.77;;;8.00;;
2187;SDS011;1100;52.014;8.540;2022-12-18T05:37:43;17.77;;;7.00;;
2187;SDS011;1100;52.014;8.540;2022-12-18T05:40:09;18.47;;;7.00;;
2187;SDS011;1100;52.014;8.540;2022-12-18T05:42:35;18.90;;;7.40;;
2187;SDS011;1100;52.014;8.540;2022-12-18T05:45:00;22.80;;;8.03;;
2187;SDS011;1100;52.014;8.540;2022-12-18T05:47:26;18.03;;;6.73;;
2187;SDS011;1100;52.014;8.540;2022-12-18T05:49:52;17.58;;;6.65;;
2187;SDS011;1100;52.014;8.540;2022-12-18T05:52:18;20.10;;;7.50;;
2187;SDS011;1100;52.014;8.540;2022-12-18T05:54:43;17.93;;;6.83;;
2187;SDS011;1100;52.014;8.540;2022-12-18T05:57:09;17.37;;;6.87;;
2187;SDS011;1100;52.014;8.540;2022-12-18T05:59:35;20.98;;;7.90;;
2187;SDS011;1100;52.014;8.540;2022-12-18T06:02:00;16.70;;;6.93;;
2187;SDS011;1100;52.014;8.540;2022-12-18T06:04:26;21.00;;;6.83;;
2187;SDS011;1100;52.014;8.540;2022-12-18T06:06:54;19.27;;;5.95;;
2187;SDS011;1100;52.014;8.540;2022-12-18T06:09:20;27.13;;;9.57;;
2187;SDS011;1100;52.014;8.540;2022-12-18T06:11:45;26.20;;;8.90;;
2187;SDS011;1100;52.014;8.540;2022-12-18T06:14:10;20.57;;;7.07;;
2187;SDS011;1100;52.014;8.540;2022-12-18T06:16:36;18.90;;;7.23;;
2187;SDS011;1100;52.014;8.540;2022-12-18T06:19:02;20.83;;;7.53;;
2187;SDS011;1100;52.014;8.540;2022-12-18T06:21:29;16.90;;;6.90;;
2187;SDS011;1100;52.014;8.540;2022-12-18T06:23:54;18.57;;;7.97;;
2187;SDS011;1100;52.014;8.540;2022-12-18T06:26:19;17.92;;;6.38;;
2187;SDS011;1100;52.014;8.540;2022-12-18T06:28:45;22.20;;;7.07;;
2187;SDS011;1100;52.014;8.540;2022-12-18T06:31:10;20.67;;;7.13;;
2187;SDS011;1100;52.014;8.540;2022-12-18T06:33:36;22.77;;;7.50;;
2187;SDS011;1100;52.014;8.540;2022-12-18T06:36:06;21.17;;;6.63;;
2187;SDS011;1100;52.014;8.540;2022-12-18T06:38:33;21.48;;;7.20;;
2187;SDS011;1100;52.014;8.540;2022-12-18T06:41:00;17.73;;;6.90;;
2187;SDS011;1100;52.014;8.540;2022-12-18T06:43:30;18.27;;;6.43;;
2187;SDS011;1100;52.014;8.540;2022-12-18T06:45:59;18.67;;;6.97;;
2187;SDS011;1100;52.014;8.540;2022-12-18T06:48:25;17.52;;;6.95;;
2187;SDS011;1100;52.014;8.540;2022-12-18T06:50:50;23.33;;;7.03;;
2187;SDS011;1100;52.014;8.540;2022-12-18T06:53:15;21.17;;;7.07;;
2187;SDS011;1100;52.014;8.540;2022-12-18T06:55:41;18.23;;;6.40;;
2187;SDS011;1100;52.014;8.540;2022-12-18T06:58:06;17.90;;;5.97;;
2187;SDS011;1100;52.014;8.540;2022-12-18T07:00:31;17.60;;;6.87;;
2187;SDS011;1100;52.014;8.540;2022-12-18T07:02:56;16.37;;;5.80;;
2187;SDS011;1100;52.014;8.540;2022-12-18T07:05:22;18.90;;;6.40;;
2187;SDS011;1100;52.014;8.540;2022-12-18T07:07:47;4.38;;;1.92;;
2187;SDS011;1100;52.014;8.540;2022-12-18T07:10:13;14.70;;;5.40;;
2187;SDS011;1100;52.014;8.540;2022-12-18T07:12:38;19.07;;;6.93;;
2187;SDS011;1100;52.014;8.540;2022-12-18T07:15:03;17.53;;;6.53;;
2187;SDS011;1100;52.014;8.540;2022-12-18T07:17:29;17.55;;;6.93;;
2187;SDS011;1100;52.014;8.540;2022-12-18T07:19:55;15.83;;;6.00;;
2187;SDS011;1100;52.014;8.540;2022-12-18T07:22:20;18.67;;;7.10;;
2187;SDS011;1100;52.014;8.540;2022-12-18T07:24:46;17.77;;;6.70;;
2187;SDS011;1100;52.014;8.540;2022-12-18T07:27:11;18.88;;;6.80;;
2187;SDS011;1100;52.014;8.540;2022-12-18T07:29:36;19.23;;;6.77;;
2187;SDS011;1100;52.014;8.540;2022-12-18T07:32:02;18.87;;;6.77;;
2187;SDS011;1100;52.014;8.540;2022-12-18T07:34:27;17.73;;;7.30;;
2187;SDS011;1100;52.014;8.540;2022-12-18T07:36:52;19.13;;;6.40;;
2187;SDS011;1100;52.014;8.540;2022-12-18T07:39:18;21.77;;;7.63;;
2187;SDS011;1100;52.014;8.540;2022-12-18T07:41:43;20.20;;;7.20;;
2187;SDS011;1100;52.014;8.540;2022-12-18T07:44:11;20.67;;;7.55;;
2187;SDS011;1100;52.014;8.540;2022-12-18T07:46:37;15.32;;;5.93;;
2187;SDS011;1100;52.014;8.540;2022-12-18T07:49:02;20.53;;;7.40;;
2187;SDS011;1100;52.014;8.540;2022-12-18T07:51:28;18.90;;;7.07;;
2187;SDS011;1100;52.014;8.540;2022-12-18T07:53:53;20.80;;;7.20;;
2187;SDS011;1100;52.014;8.540;2022-12-18T07:56:19;19.45;;;6.10;;
2187;SDS011;1100;52.014;8.540;2022-12-18T07:58:45;18.63;;;6.47;;
2187;SDS011;1100;52.014;8.540;2022-12-18T08:01:11;21.00;;;6.68;;
2187;SDS011;1100;52.014;8.540;2022-12-18T08:03:38;20.80;;;7.43;;
2187;SDS011;1100;52.014;8.540;2022-12-18T08:06:05;19.73;;;6.97;;
2187;SDS011;1100;52.014;8.540;2022-12-18T08:08:33;19.98;;;6.80;;
2187;SDS011;1100;52.014;8.540;2022-12-18T08:10:59;17.93;;;7.23;;
2187;SDS011;1100;52.014;8.540;2022-12-18T08:13:25;18.92;;;7.10;;
2187;SDS011;1100;52.014;8.540;2022-12-18T08:16:06;20.17;;;7.15;;
2187;SDS011;1100;52.014;8.540;2022-12-18T08:18:33;20.00;;;7.65;;
2187;SDS011;1100;52.014;8.540;2022-12-18T08:21:13;23.70;;;8.55;;
2187;SDS011;1100;52.014;8.540;2022-12-18T08:23:40;20.92;;;7.38;;
2187;SDS011;1100;52.014;8.540;2022-12-18T08:26:05;21.30;;;7.57;;
2187;SDS011;1100;52.014;8.540;2022-12-18T08:28:31;20.08;;;7.30;;
2187;SDS011;1100;52.014;8.540;2022-12-18T08:30:56;22.57;;;7.07;;
2187;SDS011;1100;52.014;8.540;2022-12-18T08:33:22;19.40;;;7.23;;
2187;SDS011;1100;52.014;8.540;2022-12-18T08:35:47;19.50;;;6.73;;
2187;SDS011;1100;52.014;8.540;2022-12-18T08:38:12;18.97;;;7.67;;
2187;SDS011;1100;52.014;8.540;2022-12-18T08:40:38;16.98;;;6.78;;
2187;SDS011;1100;52.014;8.540;2022-12-18T08:43:03;18.77;;;7.50;;
2187;SDS011;1100;52.014;8.540;2022-12-18T08:45:47;18.33;;;7.10;;
2187;SDS011;1100;52.014;8.540;2022-12-18T08:48:14;18.15;;;7.20;;
2187;SDS011;1100;52.014;8.540;2022-12-18T08:50:39;20.63;;;8.10;;
2187;SDS011;1100;52.014;8.540;2022-12-18T08:53:04;23.23;;;8.30;;
2187;SDS011;1100;52.014;8.540;2022-12-18T08:55:30;22.63;;;8.60;;
2187;SDS011;1100;52.014;8.540;2022-12-18T08:57:55;19.47;;;7.33;;
2187;SDS011;1100;52.014;8.540;2022-12-18T09:00:20;20.27;;;7.40;;
2187;SDS011;1100;52.014;8.540;2022-12-18T09:02:46;20.90;;;7.17;;
2187;SDS011;1100;52.014;8.540;2022-12-18T09:05:12;17.98;;;7.80;;
2187;SDS011;1100;52.014;8.540;2022-12-18T09:07:37;17.50;;;6.50;;
2187;SDS011;1100;52.014;8.540;2022-12-18T09:10:03;20.47;;;6.90;;
2187;SDS011;1100;52.014;8.540;2022-12-18T09:12:28;18.35;;;7.30;;
2187;SDS011;1100;52.014;8.540;2022-12-18T09:14:54;20.47;;;7.50;;
2187;SDS011;1100;52.014;8.540;2022-12-18T09:17:21;16.33;;;6.38;;
2187;SDS011;1100;52.014;8.540;2022-12-18T09:19:46;19.93;;;7.70;;
2187;SDS011;1100;52.014;8.540;2022-12-18T09:22:11;18.60;;;7.30;;
2187;SDS011;1100;52.014;8.540;2022-12-18T09:24:37;18.20;;;6.75;;
2187;SDS011;1100;52.014;8.540;2022-12-18T09:27:02;19.52;;;7.03;;
2187;SDS011;1100;52.014;8.540;2022-12-18T09:29:27;17.30;;;6.47;;
2187;SDS011;1100;52.014;8.540;2022-12-18T09:31:53;19.20;;;7.20;;
2187;SDS011;1100;52.014;8.540;2022-12-18T09:34:18;19.27;;;6.97;;
2187;SDS011;1100;52.014;8.540;2022-12-18T09:36:46;18.90;;;7.05;;
2187;SDS011;1100;52.014;8.540;2022-12-18T09:39:12;17.53;;;6.37;;
2187;SDS011;1100;52.014;8.540;2022-12-18T09:46:40;17.55;;;6.90;;
2187;SDS011;1100;52.014;8.540;2022-12-18T09:49:13;19.42;;;6.85;;
2187;SDS011;1100;52.014;8.540;2022-12-18T09:51:44;19.95;;;7.05;;
2187;SDS011;1100;52.014;8.540;2022-12-18T09:54:24;19.85;;;6.93;;
2187;SDS011;1100;52.014;8.540;2022-12-18T09:56:56;22.77;;;7.83;;
2187;SDS011;1100;52.014;8.540;2022-12-18T09:59:30;19.98;;;7.15;;
2187;SDS011;1100;52.014;8.540;2022-12-18T10:02:02;20.13;;;7.07;;
2187;SDS011;1100;52.014;8.540;2022-12-18T10:04:38;16.38;;;7.13;;
2187;SDS011;1100;52.014;8.540;2022-12-18T10:07:07;21.50;;;8.13;;
2187;SDS011;1100;52.014;8.540;2022-12-18T10:12:19;19.83;;;8.32;;
2187;SDS011;1100;52.014;8.540;2022-12-18T10:28:14;18.80;;;7.82;;
2187;SDS011;1100;52.014;8.540;2022-12-18T10:30:41;20.13;;;8.20;;
2187;SDS011;1100;52.014;8.540;2022-12-18T10:33:12;19.20;;;7.80;;
2187;SDS011;1100;52.014;8.540;2022-12-18T10:35:40;17.40;;;7.25;;
2187;SDS011;1100;52.014;8.540;2022-12-18T10:40:52;17.08;;;6.28;;
2187;SDS011;1100;52.014;8.540;2022-12-18T10:43:24;15.55;;;5.45;;
2187;SDS011;1100;52.014;8.540;2022-12-18T10:48:26;14.45;;;5.03;;
2187;SDS011;1100;52.014;8.540;2022-12-18T10:50:52;13.30;;;4.53;;
2187;SDS011;1100;52.014;8.540;2022-12-18T10:53:22;15.80;;;4.82;;
2187;SDS011;1100;52.014;8.540;2022-12-18T10:55:49;12.82;;;4.53;;
2187;SDS011;1100;52.014;8.540;2022-12-18T10:58:23;10.45;;;4.18;;
2187;SDS011;1100;52.014;8.540;2022-12-18T11:06:08;13.20;;;4.30;;
2187;SDS011;1100;52.014;8.540;2022-12-18T11:08:42;10.88;;;4.10;;
2187;SDS011;1100;52.014;8.540;2022-12-18T11:11:22;10.23;;;3.53;;
2187;SDS011;1100;52.014;8.540;2022-12-18T11:13:59;13.53;;;4.63;;
2187;SDS011;1100;52.014;8.540;2022-12-18T11:16:29;12.75;;;4.10;;
2187;SDS011;1100;52.014;8.540;2022-12-18T11:19:13;13.20;;;3.85;;
2187;SDS011;1100;52.014;8.540;2022-12-18T11:22:01;12.95;;;3.80;;
2187;SDS011;1100;52.014;8.540;2022-12-18T11:24:32;12.07;;;3.90;;
2187;SDS011;1100;52.014;8.540;2022-12-18T11:27:00;13.03;;;4.63;;
2187;SDS011;1100;52.014;8.540;2022-12-18T11:29:37;12.15;;;3.78;;
2187;SDS011;1100;52.014;8.540;2022-12-18T11:35:02;10.35;;;3.55;;
2187;SDS011;1100;52.014;8.540;2022-12-18T11:37:28;9.40;;;3.17;;
2187;SDS011;1100;52.014;8.540;2022-12-18T11:39:56;9.93;;;3.53;;
2187;SDS011;1100;52.014;8.540;2022-12-18T11:50:21;8.77;;;3.10;;
2187;SDS011;1100;52.014;8.540;2022-12-18T11:52:50;11.00;;;3.63;;
2187;SDS011;1100;52.014;8.540;2022-12-18T11:55:16;11.13;;;4.20;;
2187;SDS011;1100;52.014;8.540;2022-12-18T11:57:52;11.03;;;3.80;;
2187;SDS011;1100;52.014;8.540;2022-12-18T12:00:25;11.23;;;3.50;;
2187;SDS011;1100;52.014;8.540;2022-12-18T12:11:57;10.10;;;3.55;;
2187;SDS011;1100;52.014;8.540;2022-12-18T12:22:39;11.43;;;3.53;;
2187;SDS011;1100;52.014;8.540;2022-12-18T12:25:30;10.27;;;3.50;;
2187;SDS011;1100;52.014;8.540;2022-12-18T12:33:24;11.10;;;3.67;;
2187;SDS011;1100;52.014;8.540;2022-12-18T12:36:20;11.32;;;3.63;;
2187;SDS011;1100;52.014;8.540;2022-12-18T12:39:06;11.45;;;3.72;;
2187;SDS011;1100;52.014;8.540;2022-12-18T12:41:37;10.45;;;3.33;;
2187;SDS011;1100;52.014;8.540;2022-12-18T12:44:28;10.57;;;3.60;;
2187;SDS011;1100;52.014;8.540;2022-12-18T12:46:59;13.97;;;3.80;;
2187;SDS011;1100;52.014;8.540;2022-12-18T12:49:29;9.98;;;3.55;;
2187;SDS011;1100;52.014;8.540;2022-12-18T12:52:00;8.90;;;3.30;;
2187;SDS011;1100;52.014;8.540;2022-12-18T12:54:32;9.88;;;3.60;;
2187;SDS011;1100;52.014;8.540;2022-12-18T13:00:02;11.93;;;3.20;;
2187;SDS011;1100;52.014;8.540;2022-12-18T13:07:47;10.82;;;3.85;;
2187;SDS011;1100;52.014;8.540;2022-12-18T13:12:51;11.13;;;3.80;;
2187;SDS011;1100;52.014;8.540;2022-12-18T13:20:33;11.60;;;3.20;;
2187;SDS011;1100;52.014;8.540;2022-12-18T13:23:01;8.77;;;2.92;;
2187;SDS011;1100;52.014;8.540;2022-12-18T13:28:21;9.30;;;3.20;;
2187;SDS011;1100;52.014;8.540;2022-12-18T13:30:50;9.27;;;3.60;;
2187;SDS011;1100;52.014;8.540;2022-12-18T13:33:35;8.90;;;2.72;;
2187;SDS011;1100;52.014;8.540;2022-12-18T13:36:12;8.88;;;3.40;;
2187;SDS011;1100;52.014;8.540;2022-12-18T13:39:08;8.13;;;2.40;;
2187;SDS011;1100;52.014;8.540;2022-12-18T13:41:34;10.75;;;2.65;;
2187;SDS011;1100;52.014;8.540;2022-12-18T13:46:47;10.23;;;2.78;;
2187;SDS011;1100;52.014;8.540;2022-12-18T13:49:47;10.60;;;3.20;;
2187;SDS011;1100;52.014;8.540;2022-12-18T13:52:18;7.63;;;2.42;;
2187;SDS011;1100;52.014;8.540;2022-12-18T13:54:50;9.38;;;2.85;;
2187;SDS011;1100;52.014;8.540;2022-12-18T13:59:54;10.15;;;2.85;;
2187;SDS011;1100;52.014;8.540;2022-12-18T14:02:21;9.60;;;3.40;;
2187;SDS011;1100;52.014;8.540;2022-12-18T14:04:48;9.80;;;3.53;;
2187;SDS011;1100;52.014;8.540;2022-12-18T14:07:18;9.82;;;2.97;;
2187;SDS011;1100;52.014;8.540;2022-12-18T14:09:45;10.60;;;3.30;;
2187;SDS011;1100;52.014;8.540;2022-12-18T14:12:32;9.48;;;3.28;;
2187;SDS011;1100;52.014;8.540;2022-12-18T14:20:51;11.13;;;3.90;;
2187;SDS011;1100;52.014;8.540;2022-12-18T14:23:26;10.27;;;3.28;;
2187;SDS011;1100;52.014;8.540;2022-12-18T14:26:03;10.43;;;4.05;;
2187;SDS011;1100;52.014;8.540;2022-12-18T14:28:45;11.07;;;3.40;;
2187;SDS011;1100;52.014;8.540;2022-12-18T14:31:21;11.57;;;4.20;;
2187;SDS011;1100;52.014;8.540;2022-12-18T14:33:51;12.18;;;4.13;;
2187;SDS011;1100;52.014;8.540;2022-12-18T14:36:19;10.73;;;3.53;;
2187;SDS011;1100;52.014;8.540;2022-12-18T14:38:55;9.32;;;3.20;;
2187;SDS011;1100;52.014;8.540;2022-12-18T14:41:24;9.43;;;3.25;;
2187;SDS011;1100;52.014;8.540;2022-12-18T14:43:51;10.10;;;3.50;;
2187;SDS011;1100;52.014;8.540;2022-12-18T14:46:25;10.52;;;3.10;;
2187;SDS011;1100;52.014;8.540;2022-12-18T14:48:54;11.85;;;3.50;;
2187;SDS011;1100;52.014;8.540;2022-12-18T14:51:21;11.00;;;3.65;;
2187;SDS011;1100;52.014;8.540;2022-12-18T14:53:59;8.98;;;3.53;;
2187;SDS011;1100;52.014;8.540;2022-12-18T14:56:27;11.37;;;3.70;;
2187;SDS011;1100;52.014;8.540;2022-12-18T14:58:57;9.13;;;3.63;;
2187;SDS011;1100;52.014;8.540;2022-12-18T15:01:47;9.93;;;3.53;;
2187;SDS011;1100;52.014;8.540;2022-12-18T15:04:36;9.43;;;2.85;;
2187;SDS011;1100;52.014;8.540;2022-12-18T15:09:39;7.37;;;2.40;;
2187;SDS011;1100;52.014;8.540;2022-12-18T15:12:19;7.32;;;2.30;;
2187;SDS011;1100;52.014;8.540;2022-12-18T15:14:50;8.43;;;2.55;;
2187;SDS011;1100;52.014;8.540;2022-12-18T15:17:17;10.20;;;2.80;;
2187;SDS011;1100;52.014;8.540;2022-12-18T15:19:44;8.82;;;3.08;;
2187;SDS011;1100;52.014;8.540;2022-12-18T15:22:30;8.27;;;2.45;;
2187;SDS011;1100;52.014;8.540;2022-12-18T15:24:59;8.13;;;2.70;;
2187;SDS011;1100;52.014;8.540;2022-12-18T15:27:32;9.27;;;2.90;;
2187;SDS011;1100;52.014;8.540;2022-12-18T15:30:01;8.35;;;2.65;;
2187;SDS011;1100;52.014;8.540;2022-12-18T15:32:30;7.78;;;2.35;;
2187;SDS011;1100;52.014;8.540;2022-12-18T15:37:36;8.68;;;2.40;;
2187;SDS011;1100;52.014;8.540;2022-12-18T15:40:02;9.68;;;2.75;;
2187;SDS011;1100;52.014;8.540;2022-12-18T15:42:28;8.60;;;2.43;;
2187;SDS011;1100;52.014;8.540;2022-12-18T15:45:13;9.88;;;2.40;;
2187;SDS011;1100;52.014;8.540;2022-12-18T15:47:39;8.95;;;2.55;;
2187;SDS011;1100;52.014;8.540;2022-12-18T15:50:04;10.43;;;2.40;;
2187;SDS011;1100;52.014;8.540;2022-12-18T15:52:31;9.27;;;2.33;;
2187;SDS011;1100;52.014;8.540;2022-12-18T15:55:05;8.02;;;2.70;;
2187;SDS011;1100;52.014;8.540;2022-12-18T15:58:04;9.98;;;2.58;;
2187;SDS011;1100;52.014;8.540;2022-12-18T16:00:31;8.47;;;2.97;;
2187;SDS011;1100;52.014;8.540;2022-12-18T16:02:57;7.93;;;2.50;;
2187;SDS011;1100;52.014;8.540;2022-12-18T16:05:22;8.90;;;2.30;;
2187;SDS011;1100;52.014;8.540;2022-12-18T16:07:48;8.13;;;2.45;;
2187;SDS011;1100;52.014;8.540;2022-12-18T16:10:14;11.87;;;2.50;;
2187;SDS011;1100;52.014;8.540;2022-12-18T16:12:40;8.88;;;2.75;;
2187;SDS011;1100;52.014;8.540;2022-12-18T16:15:06;8.77;;;2.50;;
2187;SDS011;1100;52.014;8.540;2022-12-18T16:17:32;11.10;;;3.10;;
2187;SDS011;1100;52.014;8.540;2022-12-18T16:19:57;7.43;;;2.63;;
2187;SDS011;1100;52.014;8.540;2022-12-18T16:22:24;9.60;;;2.63;;
2187;SDS011;1100;52.014;8.540;2022-12-18T16:24:51;10.30;;;2.83;;
2187;SDS011;1100;52.014;8.540;2022-12-18T16:27:18;9.98;;;3.17;;
2187;SDS011;1100;52.014;8.540;2022-12-18T16:29:44;9.27;;;2.55;;
2187;SDS011;1100;52.014;8.540;2022-12-18T16:32:11;9.33;;;2.93;;
2187;SDS011;1100;52.014;8.540;2022-12-18T16:34:38;10.00;;;3.15;;
2187;SDS011;1100;52.014;8.540;2022-12-18T16:37:05;9.53;;;3.33;;
2187;SDS011;1100;52.014;8.540;2022-12-18T16:39:35;9.93;;;2.92;;
2187;SDS011;1100;52.014;8.540;2022-12-18T16:42:02;12.63;;;3.65;;
2187;SDS011;1100;52.014;8.540;2022-12-18T16:44:29;10.57;;;3.15;;
2187;SDS011;1100;52.014;8.540;2022-12-18T16:46:54;10.70;;;3.23;;
2187;SDS011;1100;52.014;8.540;2022-12-18T16:49:20;10.67;;;3.10;;
2187;SDS011;1100;52.014;8.540;2022-12-18T16:51:46;9.05;;;3.38;;
2187;SDS011;1100;52.014;8.540;2022-12-18T16:54:11;10.43;;;3.43;;
2187;SDS011;1100;52.014;8.540;2022-12-18T16:56:37;9.00;;;2.97;;
2187;SDS011;1100;52.014;8.540;2022-12-18T16:59:03;11.67;;;3.73;;
2187;SDS011;1100;52.014;8.540;2022-12-18T17:01:29;10.10;;;3.42;;
2187;SDS011;1100;52.014;8.540;2022-12-18T17:03:56;9.60;;;3.38;;
2187;SDS011;1100;52.014;8.540;2022-12-18T17:06:24;9.95;;;3.58;;
2187;SDS011;1100;52.014;8.540;2022-12-18T17:08:55;11.43;;;3.60;;
2187;SDS011;1100;52.014;8.540;2022-12-18T17:11:23;10.50;;;3.60;;
2187;SDS011;1100;52.014;8.540;2022-12-18T17:13:52;9.43;;;3.35;;
2187;SDS011;1100;52.014;8.540;2022-12-18T17:16:17;12.13;;;3.60;;
2187;SDS011;1100;52.014;8.540;2022-12-18T17:18:43;13.05;;;3.60;;